Time;durP1;ratioP1;P1;durP2;ratioP2;P2;SDS_P1;SDS_P2;PMS_P1;PMS_P2;Temp;Humidity;BMP_temperature;BMP_pressure;BME280_temperature;BME280_humidity;BME280_pressure;Samples;Min_cycle;Max_cycle;Signal;HPM_P1;HPM_P2
2022/10/30 00:01:55;;;;;;;6.00;4.70;;;19.90;81.20;;;;;;5079234;28;20172;-44
2022/10/30 00:04:20;;;;;;;8.50;5.50;;;19.90;81.10;;;;;;5098387;28;20577;-47
2022/10/30 00:06:47;;;;;;;9.63;5.20;;;19.90;81.10;;;;;;5098425;28;20571;-45
2022/10/30 00:09:13;;;;;;;10.77;5.27;;;19.90;81.00;;;;;;5097532;28;20559;-45
2022/10/30 00:11:42;;;;;;;6.63;4.97;;;19.90;81.00;;;;;;5096712;28;20717;-47
2022/10/30 00:14:08;;;;;;;6.93;5.10;;;19.90;81.00;;;;;;5097179;28;20190;-47
2022/10/30 00:16:33;;;;;;;8.73;4.60;;;19.90;81.10;;;;;;5097147;28;20407;-47
2022/10/30 00:19:00;;;;;;;7.00;4.50;;;19.90;81.10;;;;;;5096879;28;20204;-45
2022/10/30 00:21:25;;;;;;;5.73;4.30;;;19.90;81.00;;;;;;5098048;28;20426;-46
2022/10/30 00:23:52;;;;;;;8.30;4.33;;;19.90;81.00;;;;;;5096507;28;20452;-44
2022/10/30 00:26:19;;;;;;;7.73;4.47;;;19.90;81.20;;;;;;5097287;28;20405;-45
2022/10/30 00:28:49;;;;;;;10.10;5.37;;;19.90;81.20;;;;;;5097828;28;20422;-46
2022/10/30 00:31:14;;;;;;;6.90;4.73;;;19.90;81.10;;;;;;5097141;28;20406;-47
2022/10/30 00:33:40;;;;;;;7.57;4.10;;;19.90;81.00;;;;;;5097138;28;20911;-46
2022/10/30 00:36:06;;;;;;;5.17;3.83;;;19.90;81.10;;;;;;5097473;28;20559;-48
2022/10/30 00:38:31;;;;;;;5.70;4.70;;;19.90;81.20;;;;;;5096544;28;20660;-45
2022/10/30 00:40:57;;;;;;;5.90;4.07;;;19.90;81.10;;;;;;5096948;28;20175;-46
2022/10/30 00:43:27;;;;;;;5.20;4.00;;;19.90;81.10;;;;;;5096695;28;20168;-45
2022/10/30 00:45:53;;;;;;;8.20;4.80;;;19.90;81.10;;;;;;5095173;28;20169;-48
2022/10/30 00:48:21;;;;;;;7.03;4.50;;;19.90;81.00;;;;;;5094432;28;20502;-49
2022/10/30 00:50:46;;;;;;;6.07;4.50;;;19.90;81.00;;;;;;5078829;28;20274;-47
2022/10/30 00:53:16;;;;;;;8.57;4.80;;;19.80;80.90;;;;;;5095965;28;20525;-47
2022/10/30 00:55:52;;;;;;;7.00;3.97;;;19.90;81.00;;;;;;5095401;28;20550;-47
2022/10/30 00:58:23;;;;;;;8.07;4.47;;;19.80;80.90;;;;;;5095815;28;20469;-46
2022/10/30 01:00:52;;;;;;;7.57;4.13;;;19.90;81.00;;;;;;5094496;28;20456;-44
2022/10/30 01:03:19;;;;;;;5.30;4.40;;;19.80;80.90;;;;;;5077013;28;20471;-47
2022/10/30 01:05:48;;;;;;;5.33;4.40;;;19.90;81.00;;;;;;5077309;28;20480;-47
2022/10/30 01:08:13;;;;;;;4.03;3.67;;;19.80;80.80;;;;;;5096457;28;20457;-47
2022/10/30 01:10:39;;;;;;;8.60;4.70;;;19.80;80.80;;;;;;5096881;28;20442;-45
2022/10/30 01:13:05;;;;;;;8.17;4.17;;;19.80;80.70;;;;;;5079319;28;20458;-47
2022/10/30 01:15:34;;;;;;;6.47;4.40;;;19.80;80.90;;;;;;5078481;28;20422;-49
2022/10/30 01:18:15;;;;;;;7.83;4.20;;;19.80;80.90;;;;;;5079344;28;20472;-47
2022/10/30 01:21:05;;;;;;;8.40;3.97;;;19.80;81.00;;;;;;5078925;28;20890;-48
2022/10/30 01:23:53;;;;;;;5.47;4.00;;;19.80;81.00;;;;;;5097424;28;20833;-45
2022/10/30 01:26:25;;;;;;;5.90;3.17;;;19.80;81.10;;;;;;5097073;28;20833;-51
2022/10/30 01:28:50;;;;;;;7.10;4.73;;;19.80;81.30;;;;;;5096541;28;20703;-46
2022/10/30 01:31:19;;;;;;;6.90;4.30;;;19.70;81.90;;;;;;5097114;28;20415;-46
2022/10/30 01:33:51;;;;;;;7.20;4.70;;;19.70;81.20;;;;;;5096832;28;20188;-47
2022/10/30 01:36:26;;;;;;;5.30;3.90;;;19.70;81.30;;;;;;5096014;28;20690;-46
2022/10/30 01:38:57;;;;;;;6.00;3.53;;;19.60;81.20;;;;;;5096214;28;20464;-50
2022/10/30 01:41:23;;;;;;;6.13;3.60;;;19.60;81.30;;;;;;5077733;28;20425;-49
2022/10/30 01:43:54;;;;;;;5.33;3.63;;;19.60;81.50;;;;;;5096243;28;20426;-45
2022/10/30 01:46:54;;;;;;;6.87;3.77;;;19.60;81.60;;;;;;5095754;28;20187;-44
2022/10/30 01:49:47;;;;;;;7.90;4.10;;;19.60;81.80;;;;;;5096137;28;20417;-47
2022/10/30 01:52:26;;;;;;;6.20;3.60;;;19.50;81.70;;;;;;5048247;28;20434;-44
2022/10/30 01:54:57;;;;;;;6.07;4.53;;;19.50;81.80;;;;;;5099991;28;20920;-44
2022/10/30 01:57:38;;;;;;;8.00;3.80;;;19.50;82.60;;;;;;5099738;28;20640;-47
2022/10/30 02:00:07;;;;;;;4.53;3.33;;;19.50;81.90;;;;;;5099576;28;20432;-44
2022/10/30 02:02:33;;;;;;;5.97;3.80;;;19.50;82.00;;;;;;5081691;28;20433;-45
2022/10/30 02:04:59;;;;;;;6.80;3.87;;;19.40;82.00;;;;;;5080430;28;20422;-47
2022/10/30 02:07:25;;;;;;;6.30;4.07;;;19.50;82.50;;;;;;5082054;28;20367;-47
2022/10/30 02:09:52;;;;;;;8.23;3.90;;;19.40;82.30;;;;;;5099774;28;20431;-45
2022/10/30 02:12:18;;;;;;;7.30;3.80;;;19.40;82.30;;;;;;5081289;28;20542;-46
2022/10/30 02:14:46;;;;;;;6.33;3.60;;;19.40;82.40;;;;;;5082857;28;20876;-45
2022/10/30 02:17:12;;;;;;;8.37;4.70;;;19.40;82.50;;;;;;5082151;28;20610;-46
2022/10/30 02:19:38;;;;;;;4.30;3.57;;;19.40;82.60;;;;;;5082446;28;20893;-46
2022/10/30 02:22:04;;;;;;;6.17;3.50;;;19.40;82.60;;;;;;5100623;28;20280;-45
2022/10/30 02:24:30;;;;;;;5.40;4.00;;;19.30;82.50;;;;;;5100521;28;20171;-45
2022/10/30 02:26:56;;;;;;;6.60;3.93;;;19.30;82.60;;;;;;5100314;28;20875;-45
2022/10/30 02:29:22;;;;;;;4.70;3.63;;;19.30;82.60;;;;;;5100615;28;20453;-47
2022/10/30 02:31:48;;;;;;;5.17;3.27;;;19.30;82.60;;;;;;5100491;28;20421;-44
2022/10/30 02:34:13;;;;;;;6.60;4.40;;;19.30;82.60;;;;;;5100166;28;20265;-46
2022/10/30 02:36:39;;;;;;;5.53;3.67;;;19.30;82.70;;;;;;5100187;28;20171;-44
2022/10/30 02:39:05;;;;;;;8.30;3.93;;;19.30;82.80;;;;;;5100395;28;20219;-45
2022/10/30 02:41:31;;;;;;;8.07;4.77;;;19.30;82.80;;;;;;5099998;28;20463;-45
2022/10/30 02:43:57;;;;;;;7.03;3.67;;;19.30;82.90;;;;;;5099880;28;20416;-45
2022/10/30 02:49:44;;;;;;;3.77;2.80;;;19.30;82.90;;;;;;5099939;28;20183;-47
2022/10/30 02:52:09;;;;;;;5.57;3.33;;;19.20;82.80;;;;;;5100145;28;20503;-46
2022/10/30 02:54:35;;;;;;;4.33;3.40;;;19.20;82.90;;;;;;5099980;28;20439;-47
2022/10/30 02:57:01;;;;;;;5.33;3.87;;;19.20;83.00;;;;;;5099800;28;20258;-46
2022/10/30 02:59:27;;;;;;;6.87;4.83;;;19.20;83.10;;;;;;5082234;28;20173;-49
2022/10/30 03:01:52;;;;;;;7.93;4.33;;;19.20;83.20;;;;;;5081109;28;20507;-44
2022/10/30 03:04:18;;;;;;;6.23;3.20;;;19.10;83.20;;;;;;5099047;28;20183;-46
2022/10/30 03:06:43;;;;;;;5.60;3.40;;;19.10;83.40;;;;;;5099159;28;20187;-45
2022/10/30 03:09:09;;;;;;;7.03;3.67;;;19.10;83.50;;;;;;5099187;28;20229;-44
2022/10/30 03:11:35;;;;;;;6.57;3.87;;;19.10;83.60;;;;;;5099074;28;20184;-45
2022/10/30 03:14:00;;;;;;;6.10;4.23;;;19.10;83.50;;;;;;5099183;28;20175;-45
2022/10/30 03:16:30;;;;;;;6.30;3.80;;;19.10;83.60;;;;;;5099251;28;20194;-46
2022/10/30 03:18:57;;;;;;;6.80;4.30;;;19.10;83.70;;;;;;5098556;28;20197;-46
2022/10/30 03:21:24;;;;;;;5.87;3.70;;;19.10;83.80;;;;;;5092426;28;20434;-46
2022/10/30 03:23:51;;;;;;;6.10;3.67;;;19.00;83.80;;;;;;5079559;28;20425;-46
2022/10/30 03:26:17;;;;;;;10.00;3.40;;;19.00;84.00;;;;;;5079299;28;20417;-48
2022/10/30 03:28:42;;;;;;;5.13;3.73;;;19.00;84.00;;;;;;5079064;28;20430;-46
2022/10/30 03:31:12;;;;;;;8.30;4.03;;;18.90;84.00;;;;;;5079429;28;20419;-45
2022/10/30 03:33:38;;;;;;;6.80;3.80;;;18.90;84.10;;;;;;5078988;28;20549;-47
2022/10/30 03:36:05;;;;;;;6.43;4.10;;;18.90;84.20;;;;;;5061314;28;20436;-46
2022/10/30 03:38:31;;;;;;;6.60;4.67;;;18.90;84.30;;;;;;5077917;28;20851;-47
2022/10/30 03:40:56;;;;;;;4.63;3.57;;;18.90;84.30;;;;;;5077487;28;20417;-47
2022/10/30 03:43:22;;;;;;;7.97;4.10;;;18.90;84.30;;;;;;5077496;28;20194;-47
2022/10/30 03:45:49;;;;;;;5.93;3.97;;;18.90;84.60;;;;;;5077272;28;20181;-48
2022/10/30 03:48:16;;;;;;;6.27;3.73;;;18.90;84.70;;;;;;5077560;28;20184;-48
2022/10/30 03:50:42;;;;;;;5.93;4.47;;;18.80;84.60;;;;;;5077118;28;20462;-48
2022/10/30 03:53:07;;;;;;;6.43;4.03;;;18.80;84.70;;;;;;5077868;28;20469;-47
2022/10/30 03:55:33;;;;;;;7.93;4.13;;;18.80;84.80;;;;;;5078699;28;20181;-45
2022/10/30 03:57:58;;;;;;;5.27;3.70;;;18.80;84.90;;;;;;5078029;28;20240;-46
2022/10/30 04:00:24;;;;;;;4.70;4.20;;;18.80;85.10;;;;;;5078484;28;20185;-46
2022/10/30 04:02:51;;;;;;;6.83;4.47;;;18.70;85.00;;;;;;5078662;28;20175;-47
2022/10/30 04:05:21;;;;;;;6.63;3.60;;;18.70;85.00;;;;;;5078631;28;20265;-47
2022/10/30 04:07:46;;;;;;;7.77;4.73;;;18.70;85.00;;;;;;5078676;28;20833;-46
2022/10/30 04:10:13;;;;;;;8.10;4.23;;;18.70;85.30;;;;;;5077925;28;20521;-45
2022/10/30 04:12:39;;;;;;;5.30;4.00;;;18.70;85.30;;;;;;5078029;28;20275;-45
2022/10/30 04:15:06;;;;;;;7.93;4.00;;;18.70;85.30;;;;;;5076479;28;20803;-46
2022/10/30 04:17:32;;;;;;;5.40;3.87;;;18.60;85.30;;;;;;5076540;28;20308;-47
2022/10/30 04:19:57;;;;;;;5.00;3.00;;;18.60;85.30;;;;;;5077023;28;20522;-49
2022/10/30 04:22:23;;;;;;;7.37;3.90;;;18.60;85.30;;;;;;5059585;28;20525;-47
2022/10/30 04:24:49;;;;;;;6.50;4.10;;;18.60;85.50;;;;;;5076653;28;20454;-48
2022/10/30 04:27:15;;;;;;;5.40;4.23;;;18.60;85.50;;;;;;5077315;28;20209;-47
2022/10/30 04:29:41;;;;;;;4.97;3.87;;;18.60;85.60;;;;;;5077145;28;20191;-46
2022/10/30 04:32:08;;;;;;;10.60;4.40;;;18.50;85.60;;;;;;5077823;28;20480;-48
2022/10/30 04:34:33;;;;;;;8.77;4.67;;;18.50;85.70;;;;;;5077452;28;20292;-46
2022/10/30 04:36:59;;;;;;;5.90;3.90;;;18.50;85.70;;;;;;5077689;28;20469;-47
2022/10/30 04:39:25;;;;;;;6.63;4.50;;;18.50;85.70;;;;;;5076738;28;20180;-46
2022/10/30 04:41:50;;;;;;;5.20;3.53;;;18.50;85.70;;;;;;5078222;28;20172;-46
2022/10/30 04:44:16;;;;;;;6.93;4.30;;;18.40;85.70;;;;;;5078000;28;20275;-46
2022/10/30 04:46:41;;;;;;;6.00;3.73;;;18.40;85.80;;;;;;5077097;28;20174;-46
2022/10/30 04:49:07;;;;;;;6.60;4.20;;;18.40;85.90;;;;;;5077921;28;20180;-46
2022/10/30 04:51:33;;;;;;;6.00;4.63;;;18.40;86.00;;;;;;5077927;28;20283;-48
2022/10/30 04:53:58;;;;;;;5.90;4.67;;;18.40;86.10;;;;;;5076193;28;20181;-46
2022/10/30 04:56:24;;;;;;;4.93;4.40;;;18.40;86.90;;;;;;5077261;28;20226;-47
2022/10/30 04:58:51;;;;;;;5.77;4.33;;;18.40;86.20;;;;;;5076698;28;20616;-46
2022/10/30 05:01:16;;;;;;;5.40;4.10;;;18.30;86.10;;;;;;5077299;28;20184;-47
2022/10/30 05:03:42;;;;;;;6.23;4.00;;;18.40;86.30;;;;;;5077450;28;20495;-46
2022/10/30 05:06:21;;;;;;;6.87;4.00;;;18.30;86.20;;;;;;5077340;28;20186;-48
2022/10/30 05:08:48;;;;;;;8.20;4.10;;;18.30;86.20;;;;;;5077615;28;20168;-48
2022/10/30 05:11:13;;;;;;;4.90;4.17;;;18.30;86.30;;;;;;5077435;28;20709;-47
2022/10/30 05:13:39;;;;;;;5.67;4.10;;;18.30;86.30;;;;;;5077360;28;20511;-47
2022/10/30 05:16:05;;;;;;;6.53;4.30;;;18.30;86.40;;;;;;5077601;28;20498;-50
2022/10/30 05:18:30;;;;;;;5.27;4.00;;;18.30;86.40;;;;;;5077098;28;20221;-46
2022/10/30 05:20:56;;;;;;;8.37;4.67;;;18.30;86.40;;;;;;5076699;28;20181;-44
2022/10/30 05:23:22;;;;;;;5.80;4.20;;;18.20;86.30;;;;;;5077030;28;20177;-47
2022/10/30 05:25:47;;;;;;;5.97;4.30;;;18.20;86.30;;;;;;5079052;28;20582;-46
2022/10/30 05:28:13;;;;;;;6.10;4.33;;;18.20;86.40;;;;;;5080859;28;20190;-46
2022/10/30 05:30:38;;;;;;;7.17;4.43;;;18.20;86.40;;;;;;5081666;28;20189;-48
2022/10/30 05:33:05;;;;;;;7.10;3.63;;;18.20;86.40;;;;;;5081371;28;20441;-49
2022/10/30 05:35:32;;;;;;;4.47;4.07;;;18.20;86.60;;;;;;5080618;28;20452;-49
2022/10/30 05:37:59;;;;;;;7.87;3.73;;;18.10;86.50;;;;;;5080756;28;20473;-47
2022/10/30 05:40:24;;;;;;;8.87;5.20;;;18.10;86.50;;;;;;5080472;28;20476;-46
2022/10/30 05:42:50;;;;;;;7.20;4.10;;;18.10;86.50;;;;;;5079872;28;20420;-47
2022/10/30 05:45:16;;;;;;;5.27;4.50;;;18.10;86.50;;;;;;5081264;28;20175;-49
2022/10/30 05:47:42;;;;;;;7.07;4.83;;;18.10;86.50;;;;;;5081367;28;20191;-48
2022/10/30 05:50:09;;;;;;;5.03;3.63;;;18.10;86.50;;;;;;5081190;28;20441;-45
2022/10/30 05:52:35;;;;;;;6.17;4.23;;;18.10;86.50;;;;;;5080927;28;20471;-48
2022/10/30 05:55:00;;;;;;;6.30;4.63;;;18.10;86.50;;;;;;5080752;28;20455;-50
2022/10/30 05:57:31;;;;;;;6.03;4.03;;;18.10;86.50;;;;;;5079712;28;20232;-50
2022/10/30 05:59:57;;;;;;;6.93;4.03;;;18.00;86.40;;;;;;5080443;28;20195;-45
2022/10/30 06:02:23;;;;;;;5.60;4.20;;;18.00;86.50;;;;;;5079697;28;20734;-45
2022/10/30 06:04:48;;;;;;;7.70;4.33;;;18.00;86.50;;;;;;5080733;28;20177;-47
2022/10/30 06:07:14;;;;;;;5.73;4.50;;;18.00;86.50;;;;;;5081040;28;20190;-44
2022/10/30 06:09:40;;;;;;;6.87;3.97;;;18.00;86.30;;;;;;5080587;28;20555;-47
2022/10/30 06:12:05;;;;;;;6.90;4.07;;;17.90;86.40;;;;;;5080228;28;20186;-45
2022/10/30 06:14:31;;;;;;;4.20;3.70;;;17.80;86.60;;;;;;5080938;28;20206;-47
2022/10/30 06:16:58;;;;;;;5.93;4.43;;;17.70;86.80;;;;;;5085863;28;20451;-46
2022/10/30 06:19:24;;;;;;;5.63;4.40;;;17.70;87.30;;;;;;5099971;28;20207;-46
2022/10/30 06:21:49;;;;;;;5.27;4.67;;;17.60;87.60;;;;;;5083164;28;20502;-45
2022/10/30 06:24:15;;;;;;;5.03;3.83;;;17.60;87.90;;;;;;5099243;28;20256;-45
2022/10/30 06:26:40;;;;;;;6.23;4.47;;;17.60;87.90;;;;;;5099910;28;20184;-46
2022/10/30 06:29:06;;;;;;;5.90;4.70;;;17.60;87.80;;;;;;5099200;28;20178;-46
2022/10/30 06:31:32;;;;;;;5.50;4.03;;;17.70;87.80;;;;;;5099428;28;20176;-45
2022/10/30 06:33:57;;;;;;;6.83;4.30;;;17.70;87.30;;;;;;5098641;28;20581;-48
2022/10/30 06:36:23;;;;;;;7.90;4.33;;;17.80;87.00;;;;;;5097869;28;20195;-46
2022/10/30 06:38:48;;;;;;;5.60;4.80;;;17.90;86.80;;;;;;5098477;28;20546;-44
2022/10/30 06:41:14;;;;;;;5.90;4.10;;;18.00;86.40;;;;;;5096846;28;20493;-45
2022/10/30 06:43:40;;;;;;;6.10;3.83;;;18.10;86.00;;;;;;5097130;28;20314;-45
2022/10/30 06:46:05;;;;;;;6.87;4.37;;;18.30;85.70;;;;;;5097942;28;20179;-46
2022/10/30 06:48:31;;;;;;;6.37;4.10;;;18.50;85.20;;;;;;5098469;28;20193;-44
2022/10/30 06:50:57;;;;;;;8.10;4.00;;;18.70;84.50;;;;;;5098586;28;20179;-44
2022/10/30 06:53:24;;;;;;;7.37;4.50;;;19.00;83.60;;;;;;5097695;28;20176;-45
2022/10/30 06:55:56;;;;;;;7.10;4.43;;;19.40;82.60;;;;;;5097385;28;20464;-45
2022/10/30 06:58:22;;;;;;;6.83;3.90;;;19.80;81.30;;;;;;5097855;28;20463;-44
2022/10/30 07:00:48;;;;;;;6.60;4.13;;;20.10;80.00;;;;;;5097391;28;20659;-45
2022/10/30 07:03:14;;;;;;;6.43;4.00;;;20.30;78.90;;;;;;5097725;28;20414;-44
2022/10/30 07:05:39;;;;;;;7.57;4.40;;;20.50;78.00;;;;;;5098596;28;20179;-51
2022/10/30 07:08:05;;;;;;;4.70;4.03;;;20.60;77.10;;;;;;5099224;28;20454;-46
2022/10/30 07:10:31;;;;;;;7.20;4.77;;;20.80;76.30;;;;;;5099435;28;20179;-46
2022/10/30 07:12:57;;;;;;;9.50;5.23;;;20.90;75.50;;;;;;5099104;28;20625;-47
2022/10/30 07:15:24;;;;;;;8.30;3.73;;;20.90;75.10;;;;;;5097788;28;20175;-44
2022/10/30 07:17:56;;;;;;;5.47;3.53;;;20.90;75.00;;;;;;5099104;28;20721;-47
2022/10/30 07:20:23;;;;;;;5.93;4.37;;;20.90;75.00;;;;;;5099549;28;20422;-45
2022/10/30 07:22:49;;;;;;;6.63;3.90;;;20.80;74.90;;;;;;5098899;28;20418;-44
2022/10/30 07:25:14;;;;;;;6.80;4.40;;;20.80;74.90;;;;;;5098714;28;20436;-44
2022/10/30 07:27:48;;;;;;;5.27;3.37;;;20.80;74.90;;;;;;5097914;28;20488;-46
2022/10/30 07:30:15;;;;;;;7.20;4.10;;;20.90;74.80;;;;;;5081648;28;20185;-44
2022/10/30 07:32:41;;;;;;;7.27;4.20;;;20.90;74.80;;;;;;5099490;28;20426;-44
2022/10/30 07:35:08;;;;;;;5.80;3.80;;;20.90;74.90;;;;;;5081311;28;20450;-45
2022/10/30 07:37:34;;;;;;;6.63;3.80;;;21.00;74.80;;;;;;5099426;28;20473;-46
2022/10/30 07:39:59;;;;;;;5.70;3.90;;;21.30;74.50;;;;;;5099095;28;20424;-43
2022/10/30 07:42:25;;;;;;;5.00;3.60;;;21.50;74.00;;;;;;5099153;28;20190;-43
2022/10/30 07:44:51;;;;;;;5.87;4.43;;;21.80;73.10;;;;;;5098713;28;20172;-44
2022/10/30 07:47:16;;;;;;;5.60;3.87;;;22.00;72.30;;;;;;5097580;28;20232;-43
2022/10/30 07:49:42;;;;;;;4.50;3.67;;;22.40;71.20;;;;;;5098116;28;20262;-43
2022/10/30 07:52:08;;;;;;;6.00;3.70;;;23.00;70.00;;;;;;5097811;28;20191;-43
2022/10/30 07:54:33;;;;;;;4.93;3.80;;;23.70;67.90;;;;;;5080996;28;20591;-45
2022/10/30 07:56:59;;;;;;;5.87;4.60;;;24.60;65.50;;;;;;5098537;28;20246;-44
2022/10/30 07:59:24;;;;;;;6.60;4.57;;;25.70;62.00;;;;;;5098161;28;20267;-44
2022/10/30 08:01:50;;;;;;;7.80;4.10;;;26.80;58.90;;;;;;5098751;28;20192;-42
2022/10/30 08:04:16;;;;;;;6.30;4.83;;;27.80;56.40;;;;;;5098450;28;20179;-43
2022/10/30 08:06:42;;;;;;;5.53;5.03;;;28.70;54.10;;;;;;5098129;28;20411;-47
2022/10/30 08:09:08;;;;;;;5.83;5.27;;;29.50;52.00;;;;;;5080087;28;20201;-43
2022/10/30 08:11:33;;;;;;;6.23;4.70;;;30.30;50.10;;;;;;5096714;28;20195;-45
2022/10/30 08:13:59;;;;;;;10.20;5.77;;;31.00;48.10;;;;;;5096316;28;20714;-49
2022/10/30 08:16:25;;;;;;;6.40;5.47;;;31.70;46.50;;;;;;5096645;28;20230;-44
2022/10/30 08:18:50;;;;;;;6.67;5.00;;;32.30;45.00;;;;;;5096873;28;20213;-44
2022/10/30 08:21:16;;;;;;;5.90;4.03;;;32.90;43.60;;;;;;5095831;28;20184;-45
2022/10/30 08:23:42;;;;;;;6.83;4.87;;;33.60;42.50;;;;;;5096438;28;20169;-44
2022/10/30 08:26:07;;;;;;;5.93;5.20;;;34.20;41.20;;;;;;5096659;28;20188;-45
2022/10/30 08:28:33;;;;;;;7.67;5.63;;;34.90;40.00;;;;;;5096908;28;20193;-43
2022/10/30 08:30:59;;;;;;;6.20;4.57;;;35.50;38.90;;;;;;5097664;28;20172;-42
2022/10/30 08:33:25;;;;;;;5.37;4.47;;;36.10;38.00;;;;;;5096509;28;20188;-46
2022/10/30 08:35:52;;;;;;;11.73;4.77;;;36.90;37.00;;;;;;5095775;28;20433;-49
2022/10/30 08:38:18;;;;;;;5.80;4.57;;;37.50;36.00;;;;;;5095639;28;20519;-43
2022/10/30 08:40:44;;;;;;;5.97;4.73;;;38.10;35.10;;;;;;5077463;28;20856;-43
2022/10/30 08:43:10;;;;;;;8.23;5.70;;;38.60;34.20;;;;;;5094879;28;20187;-43
2022/10/30 08:45:36;;;;;;;6.47;4.73;;;38.90;33.70;;;;;;5095686;28;20420;-45
2022/10/30 08:48:03;;;;;;;7.20;4.77;;;39.30;33.20;;;;;;5094383;28;20591;-45
2022/10/30 08:50:30;;;;;;;6.47;4.70;;;39.80;32.50;;;;;;5096107;28;20190;-44
2022/10/30 08:52:58;;;;;;;6.80;5.50;;;40.40;31.80;;;;;;5077945;28;20425;-44
2022/10/30 08:55:24;;;;;;;6.33;5.10;;;40.90;31.20;;;;;;5097766;28;20433;-44
2022/10/30 08:57:49;;;;;;;7.60;4.87;;;41.50;31.30;;;;;;5097619;28;20466;-45
2022/10/30 09:00:15;;;;;;;7.63;5.27;;;41.90;30.30;;;;;;5096050;28;20628;-43
2022/10/30 09:02:41;;;;;;;4.87;4.37;;;42.20;30.00;;;;;;5094954;28;20206;-45
2022/10/30 09:05:08;;;;;;;6.07;5.13;;;42.70;29.60;;;;;;5094859;28;20549;-44
2022/10/30 09:07:34;;;;;;;7.50;5.30;;;43.20;29.20;;;;;;5095219;28;20173;-48
2022/10/30 09:10:00;;;;;;;9.80;4.77;;;43.50;29.00;;;;;;5094679;28;20713;-47
2022/10/30 09:12:25;;;;;;;8.33;4.43;;;43.90;28.80;;;;;;5096218;28;20413;-48
2022/10/30 09:14:51;;;;;;;5.20;4.70;;;44.20;28.40;;;;;;5096384;28;20443;-45
2022/10/30 09:17:16;;;;;;;5.30;4.40;;;44.50;28.20;;;;;;5096638;28;20237;-44
2022/10/30 09:19:42;;;;;;;4.93;4.47;;;44.70;27.90;;;;;;5097118;28;20257;-44
2022/10/30 09:22:08;;;;;;;10.17;4.03;;;44.70;27.80;;;;;;5096253;28;20259;-42
2022/10/30 09:24:33;;;;;;;7.10;5.30;;;44.90;27.80;;;;;;5096928;28;20227;-46
2022/10/30 09:26:59;;;;;;;6.87;4.20;;;45.10;27.60;;;;;;5063155;28;20329;-47
2022/10/30 09:29:25;;;;;;;6.40;4.80;;;45.30;27.50;;;;;;5097244;28;20191;-44
2022/10/30 09:31:50;;;;;;;6.10;4.10;;;45.50;27.30;;;;;;5095608;28;20218;-45
2022/10/30 09:34:16;;;;;;;5.80;4.33;;;45.80;27.20;;;;;;5095640;28;20178;-43
2022/10/30 09:36:46;;;;;;;7.87;4.23;;;46.10;27.00;;;;;;5095312;28;20173;-48
2022/10/30 09:39:12;;;;;;;5.23;4.30;;;46.40;26.80;;;;;;5096598;28;20572;-44
2022/10/30 09:41:56;;;;;;;5.73;3.90;;;46.70;26.60;;;;;;5095521;28;20458;-46
2022/10/30 09:44:30;;;;;;;5.30;4.23;;;46.90;26.40;;;;;;5078495;28;20422;-44
2022/10/30 09:47:36;;;;;;;6.17;4.20;;;47.10;26.50;;;;;;5075913;28;20512;-43
2022/10/30 09:50:24;;;;;;;5.43;4.40;;;47.10;26.10;;;;;;5076123;28;20466;-43
2022/10/30 09:52:53;;;;;;;6.67;4.40;;;47.10;26.00;;;;;;5075503;28;20446;-43
2022/10/30 09:55:25;;;;;;;4.70;3.37;;;46.90;26.10;;;;;;5095308;28;20436;-45
2022/10/30 09:58:05;;;;;;;6.20;4.30;;;46.60;26.30;;;;;;5095526;28;20417;-46
2022/10/30 10:00:38;;;;;;;5.93;4.30;;;46.20;26.10;;;;;;5077184;28;20424;-44
2022/10/30 10:03:20;;;;;;;6.07;4.07;;;45.80;26.30;;;;;;5078865;28;20414;-47
2022/10/30 10:05:58;;;;;;;4.70;3.80;;;45.70;26.10;;;;;;5096622;28;20421;-44
2022/10/30 10:08:33;;;;;;;6.60;4.07;;;45.60;26.50;;;;;;5078065;28;20764;-43
2022/10/30 10:11:20;;;;;;;4.50;4.10;;;45.50;26.30;;;;;;5077598;28;20453;-49
2022/10/30 10:14:08;;;;;;;5.77;3.70;;;45.40;26.60;;;;;;5082286;28;20452;-48
2022/10/30 10:16:35;;;;;;;5.63;3.80;;;45.60;26.60;;;;;;5098718;28;20763;-47
2022/10/30 10:19:21;;;;;;;4.60;3.30;;;46.00;26.40;;;;;;5098881;28;20421;-48
2022/10/30 10:21:56;;;;;;;8.33;3.63;;;46.00;26.30;;;;;;5098644;28;20415;-47
2022/10/30 10:24:25;;;;;;;6.80;3.27;;;46.00;26.20;;;;;;5099090;28;20414;-44
2022/10/30 10:27:09;;;;;;;5.57;3.53;;;46.00;26.30;;;;;;5080834;28;20429;-46
2022/10/30 10:29:59;;;;;;;7.23;3.23;;;46.30;26.20;;;;;;5099047;28;20439;-44
2022/10/30 10:32:27;;;;;;;3.73;3.37;;;47.40;26.00;;;;;;5098946;28;20441;-47
2022/10/30 10:35:21;;;;;;;5.33;3.37;;;48.60;25.70;;;;;;5081762;28;20447;-46
2022/10/30 10:38:23;;;;;;;4.20;2.97;;;49.30;25.20;;;;;;5100195;28;20420;-47
2022/10/30 10:41:07;;;;;;;4.00;3.07;;;50.30;24.50;;;;;;5098144;28;20417;-45
2022/10/30 10:43:53;;;;;;;3.37;2.97;;;51.00;23.90;;;;;;5097563;28;20417;-44
2022/10/30 10:46:21;;;;;;;4.13;3.13;;;51.50;23.80;;;;;;5098584;28;20454;-50
2022/10/30 10:49:16;;;;;;;3.40;3.10;;;52.30;23.60;;;;;;5099282;28;20458;-44
2022/10/30 10:51:46;;;;;;;3.80;3.40;;;53.00;23.70;;;;;;5081470;28;20520;-43
2022/10/30 10:54:29;;;;;;;3.87;3.13;;;53.80;23.50;;;;;;5081705;28;20415;-48
2022/10/30 10:56:55;;;;;;;6.00;2.77;;;54.30;23.40;;;;;;5081463;28;20479;-46
2022/10/30 10:59:35;;;;;;;3.67;2.80;;;54.80;23.30;;;;;;5080707;28;20861;-47
2022/10/30 11:02:07;;;;;;;4.40;2.97;;;55.10;23.00;;;;;;5080854;28;20177;-45
2022/10/30 11:04:39;;;;;;;3.03;2.73;;;55.20;23.10;;;;;;5099485;28;20419;-46
2022/10/30 11:07:28;;;;;;;4.77;3.20;;;55.40;22.50;;;;;;5081622;28;20524;-44
2022/10/30 11:09:55;;;;;;;4.10;3.00;;;55.40;22.50;;;;;;5080495;28;20450;-45
2022/10/30 11:12:25;;;;;;;4.63;3.20;;;55.40;22.50;;;;;;5081273;28;20509;-46
2022/10/30 11:14:51;;;;;;;3.70;2.70;;;55.30;22.40;;;;;;5081400;28;20422;-46
2022/10/30 11:17:31;;;;;;;4.57;3.57;;;55.30;22.30;;;;;;5098659;28;20483;-43
2022/10/30 11:20:00;;;;;;;3.10;2.80;;;55.30;22.30;;;;;;5080364;28;20175;-46
2022/10/30 11:22:30;;;;;;;3.47;3.00;;;55.40;22.40;;;;;;5064641;28;20520;-44
2022/10/30 11:25:22;;;;;;;4.00;3.33;;;55.30;22.40;;;;;;5059715;28;20453;-49
2022/10/30 11:27:53;;;;;;;3.70;2.77;;;55.30;22.30;;;;;;5060471;28;20519;-45
2022/10/30 11:30:21;;;;;;;3.40;2.83;;;55.30;22.30;;;;;;5077660;28;20748;-46
2022/10/30 11:32:47;;;;;;;4.60;3.20;;;54.90;22.10;;;;;;5077088;28;20713;-45
2022/10/30 11:35:15;;;;;;;4.20;3.30;;;54.60;22.00;;;;;;5059290;28;20506;-45
2022/10/30 11:37:43;;;;;;;3.63;3.30;;;54.20;21.90;;;;;;5076806;28;20247;-44
2022/10/30 11:40:11;;;;;;;5.90;3.40;;;53.40;22.00;;;;;;5076712;28;20423;-45
2022/10/30 11:42:57;;;;;;;4.20;3.10;;;52.50;21.90;;;;;;5077563;28;20421;-45
2022/10/30 11:45:27;;;;;;;4.30;3.00;;;51.20;21.90;;;;;;5060078;28;20463;-44
2022/10/30 11:47:55;;;;;;;5.80;3.30;;;49.90;21.80;;;;;;5060277;28;20467;-48
2022/10/30 11:50:23;;;;;;;2.57;2.37;;;48.80;22.00;;;;;;5060359;28;20562;-47
2022/10/30 11:52:52;;;;;;;3.77;3.00;;;47.60;22.40;;;;;;5060303;28;20442;-46
2022/10/30 11:55:29;;;;;;;3.67;2.77;;;46.70;22.80;;;;;;5077551;28;20765;-46
2022/10/30 11:57:56;;;;;;;4.37;3.10;;;46.00;23.00;;;;;;5077051;28;20863;-46
2022/10/30 12:00:29;;;;;;;3.83;2.90;;;45.60;23.30;;;;;;5077665;28;20747;-44
2022/10/30 12:02:56;;;;;;;4.90;3.03;;;45.50;23.50;;;;;;5059609;28;20477;-43
2022/10/30 12:05:39;;;;;;;3.50;3.00;;;45.50;23.60;;;;;;5077992;28;20426;-45
2022/10/30 12:08:08;;;;;;;5.47;3.67;;;45.60;23.90;;;;;;5059950;28;20472;-46
2022/10/30 12:10:53;;;;;;;3.57;2.90;;;45.90;24.10;;;;;;5077737;28;20418;-45
2022/10/30 12:13:20;;;;;;;2.43;2.23;;;46.40;24.10;;;;;;5076621;28;20440;-43
2022/10/30 12:15:48;;;;;;;4.23;2.60;;;46.70;23.80;;;;;;5076864;28;20415;-43
2022/10/30 12:18:23;;;;;;;4.73;2.77;;;47.00;23.60;;;;;;5058547;28;20440;-43
2022/10/30 12:20:52;;;;;;;3.70;3.27;;;47.20;23.40;;;;;;5057929;28;20497;-42
2022/10/30 12:23:23;;;;;;;4.00;2.50;;;47.60;23.30;;;;;;5074711;28;20412;-49
2022/10/30 12:25:51;;;;;;;3.80;2.50;;;48.00;23.20;;;;;;5058410;28;20848;-47
2022/10/30 12:28:22;;;;;;;5.17;3.53;;;47.90;22.80;;;;;;5075845;28;20534;-46
2022/10/30 12:31:05;;;;;;;4.57;3.10;;;47.60;22.90;;;;;;5076587;28;20423;-45
2022/10/30 12:33:44;;;;;;;4.00;2.87;;;47.10;23.10;;;;;;5058998;28;20424;-45
2022/10/30 12:36:18;;;;;;;3.17;2.87;;;46.60;23.30;;;;;;5058431;28;20839;-44
2022/10/30 12:38:46;;;;;;;3.40;2.60;;;46.10;23.60;;;;;;5077600;28;20826;-44
2022/10/30 12:41:30;;;;;;;4.17;2.63;;;45.80;23.80;;;;;;5059850;28;20425;-45
2022/10/30 12:44:12;;;;;;;3.77;2.43;;;45.60;23.80;;;;;;5077285;28;20411;-44
2022/10/30 12:47:08;;;;;;;3.93;2.80;;;45.60;23.70;;;;;;5059113;28;20420;-46
2022/10/30 12:49:40;;;;;;;3.33;2.43;;;45.70;23.60;;;;;;5067480;28;20419;-46
2022/10/30 12:52:36;;;;;;;4.43;2.70;;;46.10;23.40;;;;;;5096354;28;20442;-47
2022/10/30 12:55:08;;;;;;;4.37;2.57;;;46.20;23.10;;;;;;5094342;28;20455;-47
2022/10/30 12:57:36;;;;;;;3.90;2.50;;;46.40;23.00;;;;;;5078381;28;20481;-47
2022/10/30 13:00:14;;;;;;;3.33;2.43;;;46.40;22.90;;;;;;5078786;28;20475;-46